<?xml version="1.0" encoding="UTF-8" standalone="no" ?>
<gpx xmlns="http://www.topografix.com/GPX/1/1" xmlns:xsi="http://www.w3.org/2001/XMLSchema-instance" xsi:schemaLocation="http://www.topografix.com/GPX/1/1 http://www.topografix.com/GPX/1/1/gpx.xsd" version="1.1" creator="VisuGPX - https://www.visugpx.com">
  <metadata>
    <name>Chalèze - Fort des Epesses</name>
  </metadata>
  <trk>
    <name><![CDATA[Chalèze - Fort des Epesses]]></name>
    <trkseg>
      <trkpt lat="47.26888" lon="6.08914">
        <ele>256.296366</ele>
        <time>2022-01-18T15:43:47.209Z</time>
      </trkpt>
      <trkpt lat="47.26868" lon="6.0892">
        <ele>256.296366</ele>
        <time>2022-01-18T15:44:13.812Z</time>
      </trkpt>
      <trkpt lat="47.26864" lon="6.08929">
        <ele>256.296366</ele>
        <time>2022-01-18T15:44:24.178Z</time>
      </trkpt>
      <trkpt lat="47.26838" lon="6.08948">
        <ele>256.296366</ele>
        <time>2022-01-18T15:45:07.547Z</time>
      </trkpt>
      <trkpt lat="47.26819" lon="6.08918">
        <ele>256.296366</ele>
        <time>2022-01-18T15:45:47.725Z</time>
      </trkpt>
      <trkpt lat="47.26795" lon="6.08901">
        <ele>258.296092</ele>
        <time>2022-01-18T15:46:28.843Z</time>
      </trkpt>
      <trkpt lat="47.2676" lon="6.08868">
        <ele>262.452358</ele>
        <time>2022-01-18T15:47:35.343Z</time>
      </trkpt>
      <trkpt lat="47.26734" lon="6.08886">
        <ele>265.265496</ele>
        <time>2022-01-18T15:48:21.751Z</time>
      </trkpt>
      <trkpt lat="47.26718" lon="6.08921">
        <ele>268.027321</ele>
        <time>2022-01-18T15:49:08.331Z</time>
      </trkpt>
      <trkpt lat="47.26707" lon="6.08929">
        <ele>269.265507</ele>
        <time>2022-01-18T15:49:26.804Z</time>
      </trkpt>
      <trkpt lat="47.26601" lon="6.08926">
        <ele>279.238397</ele>
        <time>2022-01-18T15:52:21.965Z</time>
      </trkpt>
      <trkpt lat="47.26548" lon="6.08925">
        <ele>284.067146</ele>
        <time>2022-01-18T15:53:45.818Z</time>
      </trkpt>
      <trkpt lat="47.26467" lon="6.08917">
        <ele>291.214236</ele>
        <time>2022-01-18T15:55:47.832Z</time>
      </trkpt>
      <trkpt lat="47.26438" lon="6.08909">
        <ele>293.390478</ele>
        <time>2022-01-18T15:56:31.916Z</time>
      </trkpt>
      <trkpt lat="47.26433" lon="6.08915">
        <ele>293.852888</ele>
        <time>2022-01-18T15:56:41.278Z</time>
      </trkpt>
      <trkpt lat="47.26435" lon="6.08927">
        <ele>294.44167</ele>
        <time>2022-01-18T15:56:52.857Z</time>
      </trkpt>
      <trkpt lat="47.26456" lon="6.08945">
        <ele>296.241114</ele>
        <time>2022-01-18T15:57:29.947Z</time>
      </trkpt>
      <trkpt lat="47.26441" lon="6.08976">
        <ele>298.130181</ele>
        <time>2022-01-18T15:58:08.784Z</time>
      </trkpt>
      <trkpt lat="47.26434" lon="6.09009">
        <ele>299.862288</ele>
        <time>2022-01-18T15:58:44.276Z</time>
      </trkpt>
      <trkpt lat="47.26425" lon="6.09019">
        <ele>300.700761</ele>
        <time>2022-01-18T15:59:01.745Z</time>
      </trkpt>
      <trkpt lat="47.26405" lon="6.09047">
        <ele>302.72564</ele>
        <time>2022-01-18T15:59:43.140Z</time>
      </trkpt>
      <trkpt lat="47.26395" lon="6.09062">
        <ele>303.907595</ele>
        <time>2022-01-18T16:00:04.546Z</time>
      </trkpt>
      <trkpt lat="47.26381" lon="6.0908">
        <ele>306.001449</ele>
        <time>2022-01-18T16:00:33.205Z</time>
      </trkpt>
      <trkpt lat="47.26359" lon="6.0911">
        <ele>309.25041</ele>
        <time>2022-01-18T16:01:18.818Z</time>
      </trkpt>
      <trkpt lat="47.26341" lon="6.09156">
        <ele>313.205324</ele>
        <time>2022-01-18T16:02:14.356Z</time>
      </trkpt>
      <trkpt lat="47.26322" lon="6.0925">
        <ele>320.461665</ele>
        <time>2022-01-18T16:04:12.666Z</time>
      </trkpt>
      <trkpt lat="47.26297" lon="6.09331">
        <ele>329.604692</ele>
        <time>2022-01-18T16:06:08.668Z</time>
      </trkpt>
      <trkpt lat="47.26288" lon="6.0936">
        <ele>333.542404</ele>
        <time>2022-01-18T16:07:01.506Z</time>
      </trkpt>
      <trkpt lat="47.26286" lon="6.09368">
        <ele>334.548116</ele>
        <time>2022-01-18T16:07:13.409Z</time>
      </trkpt>
      <trkpt lat="47.26279" lon="6.09389">
        <ele>337.368576</ele>
        <time>2022-01-18T16:07:44.903Z</time>
      </trkpt>
      <trkpt lat="47.26266" lon="6.09409">
        <ele>340.726335</ele>
        <time>2022-01-18T16:08:33.923Z</time>
      </trkpt>
      <trkpt lat="47.26251" lon="6.09414">
        <ele>343.553638</ele>
        <time>2022-01-18T16:09:05.033Z</time>
      </trkpt>
      <trkpt lat="47.26188" lon="6.09401">
        <ele>355.022804</ele>
        <time>2022-01-18T16:11:29.028Z</time>
      </trkpt>
      <trkpt lat="47.26162" lon="6.09405">
        <ele>359.962307</ele>
        <time>2022-01-18T16:12:34.448Z</time>
      </trkpt>
      <trkpt lat="47.26139" lon="6.09397">
        <ele>364.467077</ele>
        <time>2022-01-18T16:13:27.596Z</time>
      </trkpt>
      <trkpt lat="47.26117" lon="6.09387">
        <ele>368.842283</ele>
        <time>2022-01-18T16:14:23.172Z</time>
      </trkpt>
      <trkpt lat="47.26111" lon="6.09369">
        <ele>371.500895</ele>
        <time>2022-01-18T16:14:54.936Z</time>
      </trkpt>
      <trkpt lat="47.26112" lon="6.09358">
        <ele>372.837914</ele>
        <time>2022-01-18T16:15:10.204Z</time>
      </trkpt>
      <trkpt lat="47.26128" lon="6.0934">
        <ele>376.651656</ele>
        <time>2022-01-18T16:15:52.013Z</time>
      </trkpt>
      <trkpt lat="47.26139" lon="6.09313">
        <ele>380.78699</ele>
        <time>2022-01-18T16:16:43.373Z</time>
      </trkpt>
      <trkpt lat="47.2614" lon="6.09299">
        <ele>382.606404</ele>
        <time>2022-01-18T16:17:02.937Z</time>
      </trkpt>
      <trkpt lat="47.26125" lon="6.09264">
        <ele>387.900859</ele>
        <time>2022-01-18T16:18:12.013Z</time>
      </trkpt>
      <trkpt lat="47.26057" lon="6.09142">
        <ele>406.445751</ele>
        <time>2022-01-18T16:22:00.305Z</time>
      </trkpt>
      <trkpt lat="47.25968" lon="6.09059">
        <ele>423.539366</ele>
        <time>2022-01-18T16:25:44.156Z</time>
      </trkpt>
      <trkpt lat="47.25908" lon="6.09015">
        <ele>432.333668</ele>
        <time>2022-01-18T16:27:43.337Z</time>
      </trkpt>
      <trkpt lat="47.25862" lon="6.09006">
        <ele>438.422691</ele>
        <time>2022-01-18T16:28:59.695Z</time>
      </trkpt>
      <trkpt lat="47.25835" lon="6.09018">
        <ele>442.091584</ele>
        <time>2022-01-18T16:29:49.798Z</time>
      </trkpt>
      <trkpt lat="47.2582" lon="6.09014">
        <ele>444.113036</ele>
        <time>2022-01-18T16:30:18.763Z</time>
      </trkpt>
      <trkpt lat="47.25801" lon="6.08989">
        <ele>447.04553</ele>
        <time>2022-01-18T16:31:01.116Z</time>
      </trkpt>
      <trkpt lat="47.25785" lon="6.08983">
        <ele>449.029747</ele>
        <time>2022-01-18T16:31:31.621Z</time>
      </trkpt>
      <trkpt lat="47.25785" lon="6.08983">
        <ele>449.029747</ele>
        <time>2022-01-18T16:31:33.061Z</time>
      </trkpt>
      <trkpt lat="47.25771" lon="6.08993">
        <ele>450.78898</ele>
        <time>2022-01-18T16:31:56.198Z</time>
      </trkpt>
      <trkpt lat="47.25736" lon="6.09005">
        <ele>455.046375</ele>
        <time>2022-01-18T16:32:55.308Z</time>
      </trkpt>
      <trkpt lat="47.25728" lon="6.09013">
        <ele>456.192057</ele>
        <time>2022-01-18T16:33:13.132Z</time>
      </trkpt>
      <trkpt lat="47.25688" lon="6.09048">
        <ele>461.566136</ele>
        <time>2022-01-18T16:34:30.711Z</time>
      </trkpt>
      <trkpt lat="47.25677" lon="6.09074">
        <ele>464.003292</ele>
        <time>2022-01-18T16:35:05.079Z</time>
      </trkpt>
      <trkpt lat="47.25658" lon="6.0914">
        <ele>469.290373</ele>
        <time>2022-01-18T16:36:31.729Z</time>
      </trkpt>
      <trkpt lat="47.25643" lon="6.09156">
        <ele>471.328316</ele>
        <time>2022-01-18T16:37:02.193Z</time>
      </trkpt>
      <trkpt lat="47.25627" lon="6.09198">
        <ele>474.791052</ele>
        <time>2022-01-18T16:37:59.359Z</time>
      </trkpt>
      <trkpt lat="47.25623" lon="6.09218">
        <ele>476.335473</ele>
        <time>2022-01-18T16:38:22.803Z</time>
      </trkpt>
      <trkpt lat="47.2565" lon="6.09307">
        <ele>483.340759</ele>
        <time>2022-01-18T16:40:04.975Z</time>
      </trkpt>
      <trkpt lat="47.25648" lon="6.09408">
        <ele>489.797236</ele>
        <time>2022-01-18T16:41:55.734Z</time>
      </trkpt>
      <trkpt lat="47.25634" lon="6.09424">
        <ele>491.41502</ele>
        <time>2022-01-18T16:42:24.258Z</time>
      </trkpt>
      <trkpt lat="47.2562" lon="6.09456">
        <ele>493.800187</ele>
        <time>2022-01-18T16:43:05.965Z</time>
      </trkpt>
      <trkpt lat="47.2561" lon="6.09521">
        <ele>497.887101</ele>
        <time>2022-01-18T16:44:16.949Z</time>
      </trkpt>
      <trkpt lat="47.25593" lon="6.09577">
        <ele>501.381523</ele>
        <time>2022-01-18T16:45:20.324Z</time>
      </trkpt>
      <trkpt lat="47.25576" lon="6.09698">
        <ele>506.258191</ele>
        <time>2022-01-18T16:47:23.431Z</time>
      </trkpt>
      <trkpt lat="47.25578" lon="6.09709">
        <ele>506.692916</ele>
        <time>2022-01-18T16:47:33.684Z</time>
      </trkpt>
      <trkpt lat="47.25578" lon="6.09714">
        <ele>506.899337</ele>
        <time>2022-01-18T16:47:38.241Z</time>
      </trkpt>
      <trkpt lat="47.25591" lon="6.09737">
        <ele>508.050025</ele>
        <time>2022-01-18T16:48:07.409Z</time>
      </trkpt>
      <trkpt lat="47.25605" lon="6.0975">
        <ele>509.056145</ele>
        <time>2022-01-18T16:48:30.717Z</time>
      </trkpt>
      <trkpt lat="47.25587" lon="6.09793">
        <ele>511.043583</ele>
        <time>2022-01-18T16:49:18.435Z</time>
      </trkpt>
      <trkpt lat="47.25557" lon="6.09857">
        <ele>513.724953</ele>
        <time>2022-01-18T16:50:31.117Z</time>
      </trkpt>
      <trkpt lat="47.25549" lon="6.09872">
        <ele>514.347135</ele>
        <time>2022-01-18T16:50:48.224Z</time>
      </trkpt>
      <trkpt lat="47.25527" lon="6.09918">
        <ele>516.295408</ele>
        <time>2022-01-18T16:51:41.677Z</time>
      </trkpt>
      <trkpt lat="47.25446" lon="6.10011">
        <ele>521.597108</ele>
        <time>2022-01-18T16:54:10.472Z</time>
      </trkpt>
      <trkpt lat="47.25429" lon="6.1007">
        <ele>524.081796</ele>
        <time>2022-01-18T16:55:12.222Z</time>
      </trkpt>
      <trkpt lat="47.25425" lon="6.10136">
        <ele>526.661061</ele>
        <time>2022-01-18T16:56:16.214Z</time>
      </trkpt>
      <trkpt lat="47.25415" lon="6.10198">
        <ele>529.127268</ele>
        <time>2022-01-18T16:57:18.953Z</time>
      </trkpt>
      <trkpt lat="47.25417" lon="6.10265">
        <ele>531.977963</ele>
        <time>2022-01-18T16:58:24.205Z</time>
      </trkpt>
      <trkpt lat="47.25428" lon="6.10347">
        <ele>535.872969</ele>
        <time>2022-01-18T16:59:47.718Z</time>
      </trkpt>
      <trkpt lat="47.25388" lon="6.10344">
        <ele>538.675807</ele>
        <time>2022-01-18T17:00:47.427Z</time>
      </trkpt>
      <trkpt lat="47.2539" lon="6.10375">
        <ele>540.171681</ele>
        <time>2022-01-18T17:01:19.443Z</time>
      </trkpt>
      <trkpt lat="47.25406" lon="6.10396">
        <ele>541.601457</ele>
        <time>2022-01-18T17:01:51.665Z</time>
      </trkpt>
      <trkpt lat="47.2539" lon="6.10375">
        <ele>543.062155</ele>
        <time>2022-01-18T17:02:22.752Z</time>
      </trkpt>
      <trkpt lat="47.2536" lon="6.10353">
        <ele>545.969226</ele>
        <time>2022-01-18T17:03:15.869Z</time>
      </trkpt>
      <trkpt lat="47.25285" lon="6.10368">
        <ele>552.428609</ele>
        <time>2022-01-18T17:05:13.899Z</time>
      </trkpt>
      <trkpt lat="47.25273" lon="6.10362">
        <ele>553.463614</ele>
        <time>2022-01-18T17:05:33.762Z</time>
      </trkpt>
      <trkpt lat="47.25276" lon="6.1029">
        <ele>557.64056</ele>
        <time>2022-01-18T17:06:50.858Z</time>
      </trkpt>
      <trkpt lat="47.25272" lon="6.1027">
        <ele>558.630839</ele>
        <time>2022-01-18T17:07:11.999Z</time>
      </trkpt>
      <trkpt lat="47.25258" lon="6.1025">
        <ele>559.692114</ele>
        <time>2022-01-18T17:07:40.171Z</time>
      </trkpt>
      <trkpt lat="47.25258" lon="6.1025">
        <ele>559.692114</ele>
        <time>2022-01-18T17:07:40.839Z</time>
      </trkpt>
      <trkpt lat="47.25215" lon="6.10213">
        <ele>562.498679</ele>
        <time>2022-01-18T17:08:54.563Z</time>
      </trkpt>
      <trkpt lat="47.25176" lon="6.10183">
        <ele>564.912754</ele>
        <time>2022-01-18T17:09:57.369Z</time>
      </trkpt>
      <trkpt lat="47.25137" lon="6.10136">
        <ele>567.686034</ele>
        <time>2022-01-18T17:11:05.973Z</time>
      </trkpt>
      <trkpt lat="47.25122" lon="6.10121">
        <ele>568.351601</ele>
        <time>2022-01-18T17:11:31.180Z</time>
      </trkpt>
      <trkpt lat="47.25125" lon="6.10132">
        <ele>568.477363</ele>
        <time>2022-01-18T17:11:41.866Z</time>
      </trkpt>
      <trkpt lat="47.2513" lon="6.10145">
        <ele>568.630962</ele>
        <time>2022-01-18T17:11:54.728Z</time>
      </trkpt>
      <trkpt lat="47.25168" lon="6.10279">
        <ele>570.148239</ele>
        <time>2022-01-18T17:13:57.886Z</time>
      </trkpt>
      <trkpt lat="47.25184" lon="6.10367">
        <ele>571.036328</ele>
        <time>2022-01-18T17:15:13.716Z</time>
      </trkpt>
      <trkpt lat="47.25184" lon="6.10401">
        <ele>571.236328</ele>
        <time>2022-01-18T17:15:42.566Z</time>
      </trkpt>
      <trkpt lat="47.25155" lon="6.10502">
        <ele>571.883166</ele>
        <time>2022-01-18T17:17:14.872Z</time>
      </trkpt>
      <trkpt lat="47.25144" lon="6.10582">
        <ele>572.367453</ele>
        <time>2022-01-18T17:18:24.216Z</time>
      </trkpt>
      <trkpt lat="47.25154" lon="6.10611">
        <ele>572.538391</ele>
        <time>2022-01-18T17:18:51.348Z</time>
      </trkpt>
      <trkpt lat="47.25196" lon="6.10688">
        <ele>572.695106</ele>
        <time>2022-01-18T17:20:13.069Z</time>
      </trkpt>
      <trkpt lat="47.25205" lon="6.10727">
        <ele>572.760869</ele>
        <time>2022-01-18T17:20:47.623Z</time>
      </trkpt>
      <trkpt lat="47.252" lon="6.10759">
        <ele>572.813072</ele>
        <time>2022-01-18T17:21:14.580Z</time>
      </trkpt>
      <trkpt lat="47.25134" lon="6.1082">
        <ele>572.810767</ele>
        <time>2022-01-18T17:22:49.593Z</time>
      </trkpt>
      <trkpt lat="47.25105" lon="6.10874">
        <ele>572.468005</ele>
        <time>2022-01-18T17:23:45.550Z</time>
      </trkpt>
      <trkpt lat="47.25097" lon="6.10904">
        <ele>572.304439</ele>
        <time>2022-01-18T17:24:12.304Z</time>
      </trkpt>
      <trkpt lat="47.25098" lon="6.10932">
        <ele>572.167985</ele>
        <time>2022-01-18T17:24:34.884Z</time>
      </trkpt>
      <trkpt lat="47.2511" lon="6.10932">
        <ele>572.079984</ele>
        <time>2022-01-18T17:24:49.483Z</time>
      </trkpt>
      <trkpt lat="47.25098" lon="6.10932">
        <ele>571.991982</ele>
        <time>2022-01-18T17:25:04.508Z</time>
      </trkpt>
      <trkpt lat="47.25114" lon="6.10987">
        <ele>571.68883</ele>
        <time>2022-01-18T17:25:55.793Z</time>
      </trkpt>
      <trkpt lat="47.2514" lon="6.11073">
        <ele>570.600994</ele>
        <time>2022-01-18T17:27:14.723Z</time>
      </trkpt>
      <trkpt lat="47.2514" lon="6.11073">
        <ele>570.600994</ele>
        <time>2022-01-18T17:27:14.751Z</time>
      </trkpt>
      <trkpt lat="47.25077" lon="6.11132">
        <ele>569.201306</ele>
        <time>2022-01-18T17:28:48.475Z</time>
      </trkpt>
      <trkpt lat="47.2511" lon="6.11203">
        <ele>568.140543</ele>
        <time>2022-01-18T17:30:02.498Z</time>
      </trkpt>
      <trkpt lat="47.25154" lon="6.11307">
        <ele>566.897077</ele>
        <time>2022-01-18T17:31:46.535Z</time>
      </trkpt>
      <trkpt lat="47.25155" lon="6.11323">
        <ele>566.737622</ele>
        <time>2022-01-18T17:31:59.693Z</time>
      </trkpt>
      <trkpt lat="47.25191" lon="6.11378">
        <ele>565.959578</ele>
        <time>2022-01-18T17:33:02.686Z</time>
      </trkpt>
      <trkpt lat="47.25253" lon="6.11476">
        <ele>564.19275</ele>
        <time>2022-01-18T17:34:54.815Z</time>
      </trkpt>
      <trkpt lat="47.2535" lon="6.116">
        <ele>561.184666</ele>
        <time>2022-01-18T17:37:36.666Z</time>
      </trkpt>
      <trkpt lat="47.25392" lon="6.11654">
        <ele>558.850067</ele>
        <time>2022-01-18T17:38:48.797Z</time>
      </trkpt>
      <trkpt lat="47.25421" lon="6.11695">
        <ele>557.161923</ele>
        <time>2022-01-18T17:39:41.613Z</time>
      </trkpt>
      <trkpt lat="47.25466" lon="6.11752">
        <ele>554.694239</ele>
        <time>2022-01-18T17:40:59.699Z</time>
      </trkpt>
      <trkpt lat="47.25496" lon="6.11793">
        <ele>552.475848</ele>
        <time>2022-01-18T17:41:54.643Z</time>
      </trkpt>
      <trkpt lat="47.25584" lon="6.1191">
        <ele>545.596319</ele>
        <time>2022-01-18T17:44:33.898Z</time>
      </trkpt>
      <trkpt lat="47.25632" lon="6.11967">
        <ele>542.047049</ele>
        <time>2022-01-18T17:45:56.563Z</time>
      </trkpt>
      <trkpt lat="47.25711" lon="6.12097">
        <ele>535.148813</ele>
        <time>2022-01-18T17:48:35.171Z</time>
      </trkpt>
      <trkpt lat="47.25756" lon="6.12146">
        <ele>532.054213</ele>
        <time>2022-01-18T17:49:49.904Z</time>
      </trkpt>
      <trkpt lat="47.25795" lon="6.1219">
        <ele>529.472933</ele>
        <time>2022-01-18T17:50:55.942Z</time>
      </trkpt>
      <trkpt lat="47.25801" lon="6.12197">
        <ele>529.054684</ele>
        <time>2022-01-18T17:51:06.631Z</time>
      </trkpt>
      <trkpt lat="47.25808" lon="6.12213">
        <ele>528.385764</ele>
        <time>2022-01-18T17:51:23.625Z</time>
      </trkpt>
      <trkpt lat="47.25836" lon="6.12282">
        <ele>525.50824</ele>
        <time>2022-01-18T17:52:35.863Z</time>
      </trkpt>
      <trkpt lat="47.25863" lon="6.12371">
        <ele>522.275055</ele>
        <time>2022-01-18T17:54:02.328Z</time>
      </trkpt>
      <trkpt lat="47.25919" lon="6.12297">
        <ele>518.806353</ele>
        <time>2022-01-18T17:55:41.359Z</time>
      </trkpt>
      <trkpt lat="47.25981" lon="6.12239">
        <ele>515.37681</ele>
        <time>2022-01-18T17:57:17.317Z</time>
      </trkpt>
      <trkpt lat="47.26066" lon="6.12137">
        <ele>509.623735</ele>
        <time>2022-01-18T17:59:42.434Z</time>
      </trkpt>
      <trkpt lat="47.26144" lon="6.12057">
        <ele>504.371246</ele>
        <time>2022-01-18T18:01:49.730Z</time>
      </trkpt>
      <trkpt lat="47.26171" lon="6.12037">
        <ele>502.511718</ele>
        <time>2022-01-18T18:02:30.229Z</time>
      </trkpt>
      <trkpt lat="47.26188" lon="6.12015">
        <ele>501.144167</ele>
        <time>2022-01-18T18:02:59.775Z</time>
      </trkpt>
      <trkpt lat="47.26197" lon="6.11959">
        <ele>498.718074</ele>
        <time>2022-01-18T18:03:52.439Z</time>
      </trkpt>
      <trkpt lat="47.26211" lon="6.1193">
        <ele>497.235537</ele>
        <time>2022-01-18T18:04:24.661Z</time>
      </trkpt>
      <trkpt lat="47.26265" lon="6.11741">
        <ele>486.264997</ele>
        <time>2022-01-18T18:07:36.533Z</time>
      </trkpt>
      <trkpt lat="47.26302" lon="6.11543">
        <ele>473.955089</ele>
        <time>2022-01-18T18:10:56.922Z</time>
      </trkpt>
      <trkpt lat="47.26311" lon="6.11519">
        <ele>472.213219</ele>
        <time>2022-01-18T18:11:24.779Z</time>
      </trkpt>
      <trkpt lat="47.2625" lon="6.11468">
        <ele>465.692743</ele>
        <time>2022-01-18T18:13:02.636Z</time>
      </trkpt>
      <trkpt lat="47.26229" lon="6.1144">
        <ele>463.094241</ele>
        <time>2022-01-18T18:13:41.609Z</time>
      </trkpt>
      <trkpt lat="47.26186" lon="6.11381">
        <ele>459.304024</ele>
        <time>2022-01-18T18:15:04.701Z</time>
      </trkpt>
      <trkpt lat="47.26157" lon="6.11351">
        <ele>457.059358</ele>
        <time>2022-01-18T18:15:50.775Z</time>
      </trkpt>
      <trkpt lat="47.26106" lon="6.11281">
        <ele>452.559996</ele>
        <time>2022-01-18T18:17:24.622Z</time>
      </trkpt>
      <trkpt lat="47.26092" lon="6.11232">
        <ele>450.728889</ele>
        <time>2022-01-18T18:18:12.914Z</time>
      </trkpt>
      <trkpt lat="47.2602" lon="6.1106">
        <ele>445.065006</ele>
        <time>2022-01-18T18:21:13.115Z</time>
      </trkpt>
      <trkpt lat="47.26011" lon="6.11017">
        <ele>444.230167</ele>
        <time>2022-01-18T18:21:50.909Z</time>
      </trkpt>
      <trkpt lat="47.2601" lon="6.1098">
        <ele>444.48166</ele>
        <time>2022-01-18T18:22:21.051Z</time>
      </trkpt>
      <trkpt lat="47.26037" lon="6.10935">
        <ele>444.89962</ele>
        <time>2022-01-18T18:23:10.578Z</time>
      </trkpt>
      <trkpt lat="47.26045" lon="6.10912">
        <ele>445.079705</ele>
        <time>2022-01-18T18:23:32.577Z</time>
      </trkpt>
      <trkpt lat="47.26048" lon="6.10896">
        <ele>445.191398</ele>
        <time>2022-01-18T18:23:46.154Z</time>
      </trkpt>
      <trkpt lat="47.26039" lon="6.10863">
        <ele>445.437398</ele>
        <time>2022-01-18T18:24:17.550Z</time>
      </trkpt>
      <trkpt lat="47.26013" lon="6.10845">
        <ele>445.725143</ele>
        <time>2022-01-18T18:24:55.285Z</time>
      </trkpt>
      <trkpt lat="47.25924" lon="6.10846">
        <ele>447.022721</ele>
        <time>2022-01-18T18:26:56.590Z</time>
      </trkpt>
      <trkpt lat="47.25907" lon="6.10833">
        <ele>447.343806</ele>
        <time>2022-01-18T18:27:22.245Z</time>
      </trkpt>
      <trkpt lat="47.25844" lon="6.10742">
        <ele>448.788748</ele>
        <time>2022-01-18T18:29:11.954Z</time>
      </trkpt>
      <trkpt lat="47.25831" lon="6.10702">
        <ele>448.093172</ele>
        <time>2022-01-18T18:29:49.641Z</time>
      </trkpt>
      <trkpt lat="47.25832" lon="6.10682">
        <ele>447.626389</ele>
        <time>2022-01-18T18:30:05.816Z</time>
      </trkpt>
      <trkpt lat="47.25855" lon="6.10576">
        <ele>444.906774</ele>
        <time>2022-01-18T18:31:43.448Z</time>
      </trkpt>
      <trkpt lat="47.25888" lon="6.10552">
        <ele>443.596268</ele>
        <time>2022-01-18T18:32:32.588Z</time>
      </trkpt>
      <trkpt lat="47.25935" lon="6.10481">
        <ele>441.129769</ele>
        <time>2022-01-18T18:34:02.555Z</time>
      </trkpt>
      <trkpt lat="47.25982" lon="6.1043">
        <ele>438.927409</ele>
        <time>2022-01-18T18:35:19.848Z</time>
      </trkpt>
      <trkpt lat="47.26008" lon="6.1039">
        <ele>437.53756</ele>
        <time>2022-01-18T18:36:07.205Z</time>
      </trkpt>
      <trkpt lat="47.26029" lon="6.10375">
        <ele>436.651752</ele>
        <time>2022-01-18T18:36:36.659Z</time>
      </trkpt>
      <trkpt lat="47.2604" lon="6.10359">
        <ele>436.087553</ele>
        <time>2022-01-18T18:36:55.530Z</time>
      </trkpt>
      <trkpt lat="47.26066" lon="6.10344">
        <ele>435.161817</ele>
        <time>2022-01-18T18:37:30.738Z</time>
      </trkpt>
      <trkpt lat="47.2607" lon="6.10335">
        <ele>434.937865</ele>
        <time>2022-01-18T18:37:40.036Z</time>
      </trkpt>
      <trkpt lat="47.26085" lon="6.10302">
        <ele>434.134749</ele>
        <time>2022-01-18T18:38:12.781Z</time>
      </trkpt>
      <trkpt lat="47.26105" lon="6.10235">
        <ele>432.636093</ele>
        <time>2022-01-18T18:39:13.797Z</time>
      </trkpt>
      <trkpt lat="47.26115" lon="6.10137">
        <ele>430.618924</ele>
        <time>2022-01-18T18:40:42.305Z</time>
      </trkpt>
      <trkpt lat="47.26127" lon="6.10087">
        <ele>427.848354</ele>
        <time>2022-01-18T18:41:30.779Z</time>
      </trkpt>
      <trkpt lat="47.26154" lon="6.10048">
        <ele>424.296881</ele>
        <time>2022-01-18T18:42:21.797Z</time>
      </trkpt>
      <trkpt lat="47.26174" lon="6.1003">
        <ele>422.022131</ele>
        <time>2022-01-18T18:42:55.293Z</time>
      </trkpt>
      <trkpt lat="47.26195" lon="6.10017">
        <ele>419.880881</ele>
        <time>2022-01-18T18:43:28.605Z</time>
      </trkpt>
      <trkpt lat="47.26229" lon="6.10019">
        <ele>416.619649</ele>
        <time>2022-01-18T18:44:18.335Z</time>
      </trkpt>
      <trkpt lat="47.26229" lon="6.10019">
        <ele>416.619649</ele>
        <time>2022-01-18T18:44:19.386Z</time>
      </trkpt>
      <trkpt lat="47.26273" lon="6.10094">
        <ele>410.040774</ele>
        <time>2022-01-18T18:46:00.404Z</time>
      </trkpt>
      <trkpt lat="47.26282" lon="6.10125">
        <ele>407.670297</ele>
        <time>2022-01-18T18:46:35.651Z</time>
      </trkpt>
      <trkpt lat="47.26281" lon="6.10134">
        <ele>407.014174</ele>
        <time>2022-01-18T18:46:46.478Z</time>
      </trkpt>
      <trkpt lat="47.26289" lon="6.1016">
        <ele>405.073397</ele>
        <time>2022-01-18T18:47:14.409Z</time>
      </trkpt>
      <trkpt lat="47.26295" lon="6.1018">
        <ele>403.564149</ele>
        <time>2022-01-18T18:47:35.810Z</time>
      </trkpt>
      <trkpt lat="47.26319" lon="6.10275">
        <ele>396.53983</ele>
        <time>2022-01-18T18:49:11.539Z</time>
      </trkpt>
      <trkpt lat="47.26332" lon="6.1031">
        <ele>394.633954</ele>
        <time>2022-01-18T18:49:49.213Z</time>
      </trkpt>
      <trkpt lat="47.26339" lon="6.10318">
        <ele>394.412659</ele>
        <time>2022-01-18T18:50:00.730Z</time>
      </trkpt>
      <trkpt lat="47.26369" lon="6.10332">
        <ele>393.598944</ele>
        <time>2022-01-18T18:50:42.974Z</time>
      </trkpt>
      <trkpt lat="47.26395" lon="6.10328">
        <ele>392.932753</ele>
        <time>2022-01-18T18:51:17.031Z</time>
      </trkpt>
      <trkpt lat="47.26416" lon="6.10309">
        <ele>392.298129</ele>
        <time>2022-01-18T18:51:47.610Z</time>
      </trkpt>
      <trkpt lat="47.26427" lon="6.10285">
        <ele>391.799945</ele>
        <time>2022-01-18T18:52:11.637Z</time>
      </trkpt>
      <trkpt lat="47.26444" lon="6.10289">
        <ele>391.374055</ele>
        <time>2022-01-18T18:52:32.080Z</time>
      </trkpt>
      <trkpt lat="47.26451" lon="6.10301">
        <ele>391.086717</ele>
        <time>2022-01-18T18:52:45.605Z</time>
      </trkpt>
      <trkpt lat="47.26444" lon="6.10289">
        <ele>390.799379</ele>
        <time>2022-01-18T18:53:00.895Z</time>
      </trkpt>
      <trkpt lat="47.26427" lon="6.10285">
        <ele>390.373489</ele>
        <time>2022-01-18T18:53:21.117Z</time>
      </trkpt>
      <trkpt lat="47.26432" lon="6.10262">
        <ele>390.122573</ele>
        <time>2022-01-18T18:53:42.524Z</time>
      </trkpt>
      <trkpt lat="47.26432" lon="6.10226">
        <ele>389.782706</ele>
        <time>2022-01-18T18:54:12.382Z</time>
      </trkpt>
      <trkpt lat="47.26416" lon="6.10146">
        <ele>388.998994</ele>
        <time>2022-01-18T18:55:21.854Z</time>
      </trkpt>
      <trkpt lat="47.26301" lon="6.09736">
        <ele>378.975894</ele>
        <time>2022-01-18T19:01:49.329Z</time>
      </trkpt>
      <trkpt lat="47.2628" lon="6.0967">
        <ele>375.906529</ele>
        <time>2022-01-18T19:02:57.008Z</time>
      </trkpt>
      <trkpt lat="47.26247" lon="6.09551">
        <ele>370.48849</ele>
        <time>2022-01-18T19:04:54.822Z</time>
      </trkpt>
      <trkpt lat="47.26233" lon="6.09499">
        <ele>366.401045</ele>
        <time>2022-01-18T19:05:48.764Z</time>
      </trkpt>
      <trkpt lat="47.26221" lon="6.09473">
        <ele>363.88946</ele>
        <time>2022-01-18T19:06:19.807Z</time>
      </trkpt>
      <trkpt lat="47.26166" lon="6.09439">
        <ele>356.760627</ele>
        <time>2022-01-18T19:07:48.121Z</time>
      </trkpt>
      <trkpt lat="47.26157" lon="6.09423">
        <ele>355.192946</ele>
        <time>2022-01-18T19:08:09.205Z</time>
      </trkpt>
      <trkpt lat="47.26157" lon="6.09411">
        <ele>354.247824</ele>
        <time>2022-01-18T19:08:20.824Z</time>
      </trkpt>
      <trkpt lat="47.26162" lon="6.09405">
        <ele>353.476089</ele>
        <time>2022-01-18T19:08:30.276Z</time>
      </trkpt>
      <trkpt lat="47.26188" lon="6.09401">
        <ele>350.40526</ele>
        <time>2022-01-18T19:09:11.414Z</time>
      </trkpt>
      <trkpt lat="47.26251" lon="6.09414">
        <ele>341.958395</ele>
        <time>2022-01-18T19:10:49.190Z</time>
      </trkpt>
      <trkpt lat="47.26266" lon="6.09409">
        <ele>339.81856</ele>
        <time>2022-01-18T19:11:11.866Z</time>
      </trkpt>
      <trkpt lat="47.26279" lon="6.09389">
        <ele>337.277251</ele>
        <time>2022-01-18T19:11:43.739Z</time>
      </trkpt>
      <trkpt lat="47.26286" lon="6.09368">
        <ele>335.142594</ele>
        <time>2022-01-18T19:12:06.749Z</time>
      </trkpt>
      <trkpt lat="47.26288" lon="6.0936">
        <ele>334.381425</ele>
        <time>2022-01-18T19:12:15.340Z</time>
      </trkpt>
      <trkpt lat="47.26424" lon="6.09524">
        <ele>314.41415</ele>
        <time>2022-01-18T19:16:36.753Z</time>
      </trkpt>
      <trkpt lat="47.26438" lon="6.09508">
        <ele>312.657745</ele>
        <time>2022-01-18T19:17:01.958Z</time>
      </trkpt>
      <trkpt lat="47.2649" lon="6.0953">
        <ele>307.359109</ele>
        <time>2022-01-18T19:18:14.271Z</time>
      </trkpt>
      <trkpt lat="47.26515" lon="6.09525">
        <ele>306.184589</ele>
        <time>2022-01-18T19:18:48.428Z</time>
      </trkpt>
      <trkpt lat="47.26544" lon="6.09482">
        <ele>304.9465</ele>
        <time>2022-01-18T19:19:43.049Z</time>
      </trkpt>
      <trkpt lat="47.26552" lon="6.09455">
        <ele>304.366756</ele>
        <time>2022-01-18T19:20:08.897Z</time>
      </trkpt>
      <trkpt lat="47.26553" lon="6.09451">
        <ele>304.288263</ele>
        <time>2022-01-18T19:20:12.569Z</time>
      </trkpt>
      <trkpt lat="47.26571" lon="6.09419">
        <ele>303.428068</ele>
        <time>2022-01-18T19:20:48.392Z</time>
      </trkpt>
      <trkpt lat="47.26577" lon="6.09398">
        <ele>302.969809</ele>
        <time>2022-01-18T19:21:07.205Z</time>
      </trkpt>
      <trkpt lat="47.26575" lon="6.09381">
        <ele>302.61717</ele>
        <time>2022-01-18T19:21:21.673Z</time>
      </trkpt>
      <trkpt lat="47.26488" lon="6.09245">
        <ele>300.709881</ele>
        <time>2022-01-18T19:23:55.869Z</time>
      </trkpt>
      <trkpt lat="47.26483" lon="6.09229">
        <ele>300.612832</ele>
        <time>2022-01-18T19:24:10.560Z</time>
      </trkpt>
      <trkpt lat="47.26517" lon="6.0917">
        <ele>300.191052</ele>
        <time>2022-01-18T19:25:14.485Z</time>
      </trkpt>
      <trkpt lat="47.26548" lon="6.09107">
        <ele>299.156897</ele>
        <time>2022-01-18T19:26:19.996Z</time>
      </trkpt>
      <trkpt lat="47.26529" lon="6.0906">
        <ele>297.901226</ele>
        <time>2022-01-18T19:27:07.148Z</time>
      </trkpt>
      <trkpt lat="47.2652" lon="6.09023">
        <ele>296.997218</ele>
        <time>2022-01-18T19:27:41.463Z</time>
      </trkpt>
      <trkpt lat="47.26512" lon="6.09012">
        <ele>296.637901</ele>
        <time>2022-01-18T19:27:54.921Z</time>
      </trkpt>
      <trkpt lat="47.26495" lon="6.08993">
        <ele>295.919813</ele>
        <time>2022-01-18T19:28:22.691Z</time>
      </trkpt>
      <trkpt lat="47.26456" lon="6.08945">
        <ele>294.21799</ele>
        <time>2022-01-18T19:29:28.897Z</time>
      </trkpt>
      <trkpt lat="47.26435" lon="6.08927">
        <ele>292.832326</ele>
        <time>2022-01-18T19:30:01.842Z</time>
      </trkpt>
      <trkpt lat="47.26433" lon="6.08915">
        <ele>292.267391</ele>
        <time>2022-01-18T19:30:12.457Z</time>
      </trkpt>
      <trkpt lat="47.26438" lon="6.08909">
        <ele>291.823711</ele>
        <time>2022-01-18T19:30:20.970Z</time>
      </trkpt>
      <trkpt lat="47.26467" lon="6.08917">
        <ele>289.735611</ele>
        <time>2022-01-18T19:31:01.036Z</time>
      </trkpt>
      <trkpt lat="47.26548" lon="6.08925">
        <ele>284.028882</ele>
        <time>2022-01-18T19:32:51.753Z</time>
      </trkpt>
      <trkpt lat="47.26601" lon="6.08926">
        <ele>279.80788</ele>
        <time>2022-01-18T19:34:07.446Z</time>
      </trkpt>
      <trkpt lat="47.26707" lon="6.08929">
        <ele>268.879498</ele>
        <time>2022-01-18T19:36:42.498Z</time>
      </trkpt>
      <trkpt lat="47.26718" lon="6.08921">
        <ele>267.584755</ele>
        <time>2022-01-18T19:36:59.582Z</time>
      </trkpt>
      <trkpt lat="47.26734" lon="6.08886">
        <ele>264.696779</ele>
        <time>2022-01-18T19:37:40.617Z</time>
      </trkpt>
      <trkpt lat="47.2676" lon="6.08868">
        <ele>262.71466</ele>
        <time>2022-01-18T19:38:22.039Z</time>
      </trkpt>
      <trkpt lat="47.26795" lon="6.08901">
        <ele>262.71466</ele>
        <time>2022-01-18T19:39:21.952Z</time>
      </trkpt>
      <trkpt lat="47.26819" lon="6.08918">
        <ele>262.71466</ele>
        <time>2022-01-18T19:39:59.314Z</time>
      </trkpt>
      <trkpt lat="47.26838" lon="6.08948">
        <ele>262.71466</ele>
        <time>2022-01-18T19:40:36.255Z</time>
      </trkpt>
      <trkpt lat="47.26864" lon="6.08929">
        <ele>262.71466</ele>
        <time>2022-01-18T19:41:16.105Z</time>
      </trkpt>
      <trkpt lat="47.26868" lon="6.0892">
        <ele>262.71466</ele>
        <time>2022-01-18T19:41:26.017Z</time>
      </trkpt>
      <trkpt lat="47.26888" lon="6.08914">
        <ele>262.71466</ele>
        <time>2022-01-18T19:41:51.452Z</time>
      </trkpt>
    </trkseg>
  </trk>
</gpx>